Time;durP1;ratioP1;P1;durP2;ratioP2;P2;SDS_P1;SDS_P2;PMS_P1;PMS_P2;Temp;Humidity;BMP_temperature;BMP_pressure;BME280_temperature;BME280_humidity;BME280_pressure;Samples;Min_cycle;Max_cycle;Signal;HPM_P1;HPM_P2
2022/01/21 00:01:36;;;;;;;0.98;0.20;;;2.30;91.70;;;;;;6277255;22;20007;-76
2022/01/21 00:04:04;;;;;;;0.32;0.22;;;2.30;91.70;;;;;;6307814;22;19999;-76
2022/01/21 00:06:30;;;;;;;0.28;0.22;;;2.20;91.70;;;;;;6256992;22;20102;-76
2022/01/21 00:08:56;;;;;;;0.68;0.20;;;2.20;91.80;;;;;;6252763;22;20813;-76
2022/01/21 00:11:24;;;;;;;0.13;0.10;;;2.20;91.80;;;;;;6277296;22;19992;-76
2022/01/21 00:13:50;;;;;;;1.35;0.20;;;2.20;91.80;;;;;;6304768;22;19996;-76
2022/01/21 00:16:20;;;;;;;0.57;0.35;;;2.10;91.90;;;;;;6266599;22;20003;-76
2022/01/21 00:18:56;;;;;;;0.38;0.20;;;2.10;92.00;;;;;;6279052;22;20006;-76
2022/01/21 00:32:02;;;;;;;0.30;0.15;;;1.90;92.10;;;;;;6305370;22;20015;-76
2022/01/21 00:34:28;;;;;;;0.45;0.20;;;1.90;92.10;;;;;;6251594;22;20832;-76
2022/01/21 00:36:54;;;;;;;1.58;0.20;;;1.90;92.20;;;;;;6275813;22;20439;-76
2022/01/21 00:39:23;;;;;;;0.35;0.30;;;1.90;92.20;;;;;;6250661;22;20012;-76
2022/01/21 00:44:28;;;;;;;0.10;0.10;;;1.90;92.20;;;;;;6303886;22;20053;-76
2022/01/21 00:46:54;;;;;;;0.15;0.10;;;1.90;92.20;;;;;;6276243;22;20098;-76
2022/01/21 00:49:19;;;;;;;0.00;0.00;;;1.90;92.20;;;;;;6305690;22;20442;-76
2022/01/21 00:51:45;;;;;;;0.00;0.00;;;1.90;92.20;;;;;;6277338;22;20003;-76
2022/01/21 00:54:11;;;;;;;1.60;0.10;;;1.80;92.20;;;;;;6276273;22;20083;-76
2022/01/21 00:56:37;;;;;;;0.20;0.10;;;1.90;92.30;;;;;;6275503;22;20478;-76
2022/01/21 00:59:02;;;;;;;0.40;0.20;;;1.80;92.30;;;;;;6271364;22;20006;-76
2022/01/21 01:01:28;;;;;;;0.00;0.00;;;1.80;92.30;;;;;;6276615;22;20014;-76
2022/01/21 01:03:54;;;;;;;0.90;0.20;;;1.80;92.30;;;;;;6249452;22;20451;-76
2022/01/21 01:06:19;;;;;;;0.20;0.17;;;1.90;92.30;;;;;;6277135;22;20093;-76
2022/01/21 01:08:48;;;;;;;0.13;0.10;;;1.80;92.20;;;;;;6276871;22;19995;-77
2022/01/21 01:11:20;;;;;;;1.13;0.43;;;1.80;92.20;;;;;;6276620;22;21163;-76
2022/01/21 01:21:46;;;;;;;1.50;0.10;;;1.70;92.30;;;;;;6280785;22;20038;-76
2022/01/21 01:29:25;;;;;;;0.45;0.10;;;1.70;92.40;;;;;;6308723;22;20374;-76
2022/01/21 01:31:51;;;;;;;0.20;0.08;;;1.70;92.40;;;;;;6252506;22;20010;-76
2022/01/21 01:34:18;;;;;;;0.60;0.30;;;1.70;92.40;;;;;;6252748;22;20007;-76
2022/01/21 01:36:46;;;;;;;0.70;0.20;;;1.70;92.40;;;;;;6252640;22;20007;-75
2022/01/21 01:39:29;;;;;;;0.15;0.08;;;1.70;92.40;;;;;;6273260;22;20014;-76
2022/01/21 01:42:12;;;;;;;0.82;0.22;;;1.60;92.40;;;;;;6250743;22;20497;-76
2022/01/21 01:50:15;;;;;;;0.80;0.20;;;1.60;92.40;;;;;;6281998;22;20007;-76
2022/01/21 01:52:46;;;;;;;1.15;0.20;;;1.60;92.40;;;;;;6306545;22;20052;-76
2022/01/21 01:55:11;;;;;;;0.37;0.10;;;1.50;92.40;;;;;;6236758;22;20364;-76
2022/01/21 01:57:37;;;;;;;1.00;0.20;;;1.60;92.50;;;;;;6278299;22;20068;-76
2022/01/21 02:00:05;;;;;;;0.40;0.15;;;1.60;92.50;;;;;;6306085;22;20011;-76
2022/01/21 02:02:34;;;;;;;0.70;0.20;;;1.60;92.50;;;;;;6251710;22;20014;-76
2022/01/21 02:04:59;;;;;;;0.03;0.03;;;1.60;92.50;;;;;;6262147;22;20003;-76
2022/01/21 02:07:25;;;;;;;1.27;0.20;;;1.70;92.50;;;;;;6305978;22;20436;-76
2022/01/21 02:09:51;;;;;;;0.70;0.20;;;1.50;92.40;;;;;;6278485;22;20003;-76
2022/01/21 02:12:17;;;;;;;1.00;0.30;;;1.60;92.50;;;;;;6277510;22;20311;-76
2022/01/21 02:14:49;;;;;;;1.88;0.20;;;1.60;92.40;;;;;;6275220;22;20007;-76
2022/01/21 02:21:29;;;;;;;2.30;0.40;;;1.60;92.40;;;;;;6306389;22;20014;-76
2022/01/21 02:22:41;;;;;;;0.55;0.20;;;1.60;92.30;;;;;;6305613;22;20393;-76
2022/01/21 02:27:51;;;;;;;0.63;0.20;;;1.60;92.30;;;;;;6275571;22;20072;-75
2022/01/21 02:30:19;;;;;;;0.73;0.38;;;1.60;92.30;;;;;;6250769;22;20004;-76
2022/01/21 02:32:47;;;;;;;1.10;0.40;;;1.60;92.30;;;;;;6272097;22;20478;-76
2022/01/21 02:35:14;;;;;;;0.60;0.20;;;1.60;92.30;;;;;;6252480;22;19995;-75
2022/01/21 02:37:41;;;;;;;1.48;0.30;;;1.50;92.30;;;;;;6278353;22;20320;-76
2022/01/21 02:40:10;;;;;;;0.10;0.10;;;1.50;92.40;;;;;;6277155;22;20004;-75
2022/01/21 02:42:36;;;;;;;0.30;0.20;;;1.60;92.50;;;;;;6277692;22;20004;-75
2022/01/21 02:45:05;;;;;;;0.52;0.20;;;1.40;92.40;;;;;;6274039;22;20008;-76
2022/01/21 02:47:31;;;;;;;0.32;0.20;;;1.50;92.40;;;;;;6306141;22;20426;-76
2022/01/21 02:49:56;;;;;;;1.73;0.30;;;1.50;92.40;;;;;;6306250;22;20003;-76
2022/01/21 02:52:26;;;;;;;0.10;0.10;;;1.50;92.40;;;;;;6273146;22;20006;-76
2022/01/21 02:54:52;;;;;;;0.45;0.17;;;1.50;92.40;;;;;;6305626;22;20004;-75
2022/01/21 02:57:19;;;;;;;0.40;0.20;;;1.50;92.40;;;;;;6278953;22;20052;-75
2022/01/21 02:59:45;;;;;;;0.90;0.10;;;1.50;92.40;;;;;;6249833;22;20011;-76
2022/01/21 03:02:14;;;;;;;0.32;0.10;;;1.50;92.40;;;;;;6250681;22;20025;-76
2022/01/21 03:05:13;;;;;;;0.80;0.20;;;1.50;92.40;;;;;;6271140;22;20312;-76
2022/01/21 03:07:25;;;;;;;0.25;0.10;;;1.50;92.40;;;;;;6275381;22;20015;-76
2022/01/21 03:09:51;;;;;;;0.50;0.13;;;1.50;92.40;;;;;;6305771;22;20045;-76
2022/01/21 03:12:17;;;;;;;0.57;0.30;;;1.30;92.40;;;;;;6305919;22;20431;-76
2022/01/21 03:14:42;;;;;;;0.32;0.10;;;1.40;92.50;;;;;;6306086;22;20015;-76
2022/01/21 03:17:08;;;;;;;0.35;0.10;;;1.30;92.40;;;;;;6278796;22;20038;-75
2022/01/21 03:19:34;;;;;;;0.08;0.00;;;1.30;92.50;;;;;;6306009;22;20003;-76
2022/01/21 03:22:02;;;;;;;1.33;0.20;;;1.40;92.50;;;;;;6253359;22;20014;-76
2022/01/21 03:24:27;;;;;;;0.45;0.20;;;1.30;92.50;;;;;;6305558;22;20510;-76
2022/01/21 03:26:53;;;;;;;0.63;0.10;;;1.20;92.60;;;;;;6266872;22;20031;-76
2022/01/21 03:29:19;;;;;;;0.70;0.05;;;1.20;92.50;;;;;;6277817;22;20003;-76
2022/01/21 03:31:45;;;;;;;1.50;0.20;;;1.20;92.60;;;;;;6276153;22;20006;-76
2022/01/21 03:34:11;;;;;;;0.30;0.10;;;1.20;92.60;;;;;;6305518;22;19999;-76
2022/01/21 03:36:38;;;;;;;0.10;0.10;;;1.20;92.60;;;;;;6268908;22;20549;-76
2022/01/21 03:39:04;;;;;;;0.00;0.00;;;1.20;92.60;;;;;;6279144;22;20006;-75
2022/01/21 03:41:30;;;;;;;0.55;0.17;;;1.10;92.60;;;;;;6277487;22;20007;-76
2022/01/21 03:43:56;;;;;;;0.52;0.10;;;1.10;92.60;;;;;;6278504;22;20000;-76
2022/01/21 03:46:21;;;;;;;0.00;0.00;;;1.10;92.70;;;;;;6252304;22;20007;-76
2022/01/21 03:48:48;;;;;;;0.20;0.03;;;1.00;92.70;;;;;;6245092;22;19999;-76
2022/01/21 03:51:15;;;;;;;0.10;0.00;;;1.00;92.70;;;;;;6278123;22;20327;-77
2022/01/21 03:53:40;;;;;;;0.17;0.10;;;1.00;92.70;;;;;;6305463;22;20004;-75
2022/01/21 03:56:06;;;;;;;0.75;0.10;;;0.90;92.70;;;;;;6271943;22;20362;-75
2022/01/21 03:58:35;;;;;;;0.28;0.10;;;0.90;92.70;;;;;;6278407;22;20007;-76
2022/01/21 04:01:01;;;;;;;1.10;0.20;;;0.90;92.80;;;;;;6267999;22;20004;-76
2022/01/21 04:03:27;;;;;;;0.75;0.20;;;0.90;92.80;;;;;;6275492;22;20011;-76
2022/01/21 04:05:53;;;;;;;0.38;0.20;;;0.90;92.80;;;;;;6252453;22;20043;-75
2022/01/21 04:08:19;;;;;;;0.35;0.20;;;0.80;93.10;;;;;;6247835;22;20019;-76
2022/01/21 04:10:48;;;;;;;0.90;0.20;;;0.80;92.80;;;;;;6305605;22;20434;-75
2022/01/21 04:13:17;;;;;;;1.45;0.28;;;0.80;92.80;;;;;;6277769;22;20003;-76
2022/01/21 04:15:44;;;;;;;0.15;0.10;;;0.80;92.80;;;;;;6302365;22;20003;-76
2022/01/21 04:18:11;;;;;;;0.15;0.10;;;0.80;92.80;;;;;;6274760;22;20079;-76
2022/01/21 04:20:37;;;;;;;0.22;0.20;;;0.80;92.80;;;;;;6273235;22;20078;-76
2022/01/21 04:23:04;;;;;;;1.33;0.30;;;0.70;92.70;;;;;;6276288;22;20008;-76
2022/01/21 04:25:30;;;;;;;2.28;0.30;;;0.80;92.80;;;;;;6276198;22;20004;-76
2022/01/21 04:27:56;;;;;;;0.82;0.10;;;0.70;92.70;;;;;;6277734;22;20008;-76
2022/01/21 04:30:22;;;;;;;0.00;0.00;;;0.70;92.80;;;;;;6277883;22;20052;-76
2022/01/21 04:32:47;;;;;;;0.35;0.10;;;0.70;92.70;;;;;;6247001;22;20428;-75
2022/01/21 04:35:13;;;;;;;0.30;0.10;;;0.70;93.00;;;;;;6274737;22;20103;-76
2022/01/21 04:37:45;;;;;;;0.77;0.20;;;0.80;92.70;;;;;;6271327;22;19999;-75
2022/01/21 04:40:15;;;;;;;0.28;0.10;;;0.70;92.70;;;;;;6305664;22;20446;-76
2022/01/21 04:48:00;;;;;;;0.65;0.20;;;0.70;92.70;;;;;;6279003;22;20087;-76
2022/01/21 04:50:27;;;;;;;1.23;0.30;;;0.70;92.60;;;;;;6275165;22;20082;-76
2022/01/21 04:52:52;;;;;;;0.85;0.10;;;0.70;92.60;;;;;;6251302;22;20008;-76
2022/01/21 04:55:18;;;;;;;0.20;0.13;;;0.70;92.60;;;;;;6305026;22;20086;-76
2022/01/21 04:57:44;;;;;;;2.00;0.20;;;0.60;92.60;;;;;;6248738;22;20007;-76
2022/01/21 05:00:10;;;;;;;0.22;0.20;;;0.60;92.60;;;;;;6251982;22;20022;-76
2022/01/21 05:02:36;;;;;;;0.28;0.10;;;0.60;92.70;;;;;;6277565;22;20011;-76
2022/01/21 05:05:03;;;;;;;0.20;0.10;;;0.60;92.70;;;;;;6245810;22;20015;-76
2022/01/21 05:07:34;;;;;;;0.10;0.10;;;0.50;92.70;;;;;;6247036;22;20012;-75
2022/01/21 05:10:02;;;;;;;0.32;0.00;;;0.50;92.70;;;;;;6273027;22;20142;-76
2022/01/21 05:12:28;;;;;;;0.28;0.13;;;0.50;92.80;;;;;;6278139;22;20061;-76
2022/01/21 05:15:13;;;;;;;0.15;0.10;;;0.50;92.80;;;;;;6276083;22;20360;-76
2022/01/21 05:17:45;;;;;;;0.32;0.10;;;0.40;92.80;;;;;;6257380;22;20037;-76
2022/01/21 05:20:11;;;;;;;0.52;0.10;;;0.40;92.80;;;;;;6247438;22;20090;-76
2022/01/21 05:22:38;;;;;;;0.10;0.10;;;0.40;92.80;;;;;;6263781;22;20485;-76
2022/01/21 05:25:04;;;;;;;0.22;0.00;;;0.40;92.80;;;;;;6305506;22;20070;-76
2022/01/21 05:27:30;;;;;;;0.35;0.10;;;0.40;92.80;;;;;;6249146;22;20008;-75
2022/01/21 05:29:56;;;;;;;0.10;0.10;;;0.30;92.80;;;;;;6277612;22;20057;-76
2022/01/21 05:32:22;;;;;;;0.00;0.00;;;0.40;92.90;;;;;;6274938;22;20045;-76
2022/01/21 05:34:48;;;;;;;0.55;0.00;;;0.30;92.90;;;;;;6305154;22;20078;-75
2022/01/21 05:37:13;;;;;;;0.22;0.10;;;0.40;92.90;;;;;;6277871;22;20043;-76
2022/01/21 05:39:39;;;;;;;0.10;0.10;;;0.40;92.90;;;;;;6252681;22;20316;-75
2022/01/21 05:42:07;;;;;;;0.28;0.10;;;0.40;92.90;;;;;;6275266;22;20061;-75
2022/01/21 05:47:18;;;;;;;0.40;0.10;;;0.40;92.90;;;;;;6259647;22;20063;-75
2022/01/21 05:49:44;;;;;;;1.45;0.20;;;0.50;92.90;;;;;;6246743;22;20000;-76
2022/01/21 05:52:16;;;;;;;0.00;0.00;;;0.40;92.80;;;;;;6277153;22;20091;-77
2022/01/21 05:54:44;;;;;;;0.08;0.00;;;0.40;92.80;;;;;;6280389;22;20291;-76
2022/01/21 05:57:13;;;;;;;0.20;0.10;;;0.40;92.80;;;;;;6271349;22;20012;-76
2022/01/21 05:59:39;;;;;;;0.45;0.10;;;0.40;92.80;;;;;;6276433;22;20486;-75
2022/01/21 06:02:06;;;;;;;0.45;0.20;;;0.40;92.80;;;;;;6277925;22;20369;-76
2022/01/21 06:04:33;;;;;;;0.08;0.08;;;0.40;92.80;;;;;;6305359;22;20010;-76
2022/01/21 06:07:00;;;;;;;0.00;0.00;;;0.40;93.10;;;;;;6278184;22;20043;-75
2022/01/21 06:09:27;;;;;;;0.10;0.10;;;0.40;92.80;;;;;;6305606;22;20427;-75
2022/01/21 06:11:53;;;;;;;0.55;0.20;;;0.30;92.80;;;;;;6244338;22;20002;-75
2022/01/21 06:14:19;;;;;;;0.10;0.10;;;0.30;92.80;;;;;;6280084;22;20406;-75
2022/01/21 06:16:45;;;;;;;0.00;0.00;;;0.30;92.80;;;;;;6306745;22;20094;-75
2022/01/21 06:19:11;;;;;;;0.10;0.10;;;0.30;92.80;;;;;;6307006;22;20003;-76
2022/01/21 06:21:37;;;;;;;0.10;0.10;;;0.30;92.90;;;;;;6269156;22;20078;-75
2022/01/21 06:24:04;;;;;;;0.00;0.00;;;0.30;92.90;;;;;;6278026;22;20902;-75
2022/01/21 06:26:29;;;;;;;0.08;0.08;;;0.30;92.90;;;;;;6277562;22;20012;-76
2022/01/21 06:28:55;;;;;;;0.10;0.10;;;0.30;92.90;;;;;;6279468;22;20429;-76
2022/01/21 06:31:21;;;;;;;0.00;0.00;;;0.20;92.90;;;;;;6278584;22;20005;-75
2022/01/21 06:33:46;;;;;;;0.50;0.10;;;0.30;92.90;;;;;;6251929;22;20034;-75
2022/01/21 06:36:13;;;;;;;0.00;0.00;;;0.20;92.90;;;;;;6276334;22;20109;-76
2022/01/21 06:38:38;;;;;;;0.08;0.00;;;0.20;92.90;;;;;;6279276;22;20387;-75
2022/01/21 06:41:04;;;;;;;0.57;0.00;;;0.20;92.90;;;;;;6278480;22;20049;-76
2022/01/21 06:43:30;;;;;;;1.05;0.20;;;0.20;92.90;;;;;;6306608;22;20035;-75
2022/01/21 06:45:56;;;;;;;0.80;0.08;;;0.20;92.90;;;;;;6306767;22;20338;-76
2022/01/21 06:48:22;;;;;;;0.75;0.10;;;0.20;92.90;;;;;;6249888;22;20007;-76
2022/01/21 06:50:48;;;;;;;0.10;0.00;;;0.30;92.90;;;;;;6276459;22;20062;-76
2022/01/21 06:53:13;;;;;;;0.10;0.10;;;0.30;92.90;;;;;;6306552;22;20002;-75
2022/01/21 06:55:39;;;;;;;0.20;0.00;;;0.30;92.80;;;;;;6276411;22;19996;-76
2022/01/21 06:58:06;;;;;;;0.10;0.05;;;0.40;92.90;;;;;;6278498;22;20030;-75
2022/01/21 07:00:33;;;;;;;0.30;0.20;;;0.30;92.80;;;;;;6248880;22;20027;-75
2022/01/21 07:02:58;;;;;;;0.30;0.20;;;0.30;92.80;;;;;;6251217;22;20086;-76
2022/01/21 07:05:29;;;;;;;0.47;0.10;;;0.40;92.90;;;;;;6250640;22;20027;-76
2022/01/21 07:07:56;;;;;;;0.22;0.20;;;0.40;92.90;;;;;;6306937;22;20003;-75
2022/01/21 07:10:22;;;;;;;1.00;0.13;;;0.50;92.90;;;;;;6253510;22;20003;-75
2022/01/21 07:12:48;;;;;;;0.43;0.20;;;0.50;92.80;;;;;;6279274;22;19999;-75
2022/01/21 07:15:16;;;;;;;0.28;0.10;;;0.60;92.70;;;;;;6244357;22;20030;-75
2022/01/21 07:17:43;;;;;;;0.13;0.10;;;0.70;92.70;;;;;;6307596;22;20035;-75
2022/01/21 07:20:09;;;;;;;0.10;0.10;;;0.60;92.70;;;;;;6310512;22;20015;-75
2022/01/21 07:22:36;;;;;;;0.13;0.10;;;0.60;92.60;;;;;;6255816;22;20849;-75
2022/01/21 07:25:02;;;;;;;0.38;0.05;;;0.70;92.60;;;;;;6255738;22;20406;-75
2022/01/21 07:27:28;;;;;;;0.25;0.20;;;0.70;92.60;;;;;;6257993;22;20042;-75
2022/01/21 07:29:54;;;;;;;0.17;0.10;;;0.70;92.60;;;;;;6277096;22;20799;-75
2022/01/21 07:32:20;;;;;;;0.98;0.20;;;0.70;92.60;;;;;;6255218;22;20446;-77
2022/01/21 07:34:45;;;;;;;0.10;0.10;;;0.80;92.70;;;;;;6252808;22;20007;-75
2022/01/21 07:37:11;;;;;;;1.35;0.10;;;0.80;92.60;;;;;;6280748;22;20007;-75
2022/01/21 07:39:37;;;;;;;0.40;0.20;;;0.90;92.60;;;;;;6255237;22;20039;-75
2022/01/21 07:42:03;;;;;;;1.30;0.20;;;0.90;92.60;;;;;;6280473;22;20007;-75
2022/01/21 07:44:29;;;;;;;0.10;0.10;;;0.90;92.60;;;;;;6252052;22;20424;-75
2022/01/21 07:46:55;;;;;;;0.10;0.10;;;0.90;92.50;;;;;;6307706;22;19999;-75
2022/01/21 07:49:20;;;;;;;1.10;0.20;;;0.90;92.50;;;;;;6307275;22;20009;-75
2022/01/21 07:51:46;;;;;;;0.70;0.30;;;1.00;92.50;;;;;;6312074;22;20030;-76
2022/01/21 07:54:13;;;;;;;0.20;0.15;;;1.10;92.60;;;;;;6285789;22;20031;-76
2022/01/21 07:56:39;;;;;;;0.90;0.20;;;1.20;92.50;;;;;;6284362;22;20007;-76
2022/01/21 07:59:09;;;;;;;0.25;0.20;;;1.00;92.40;;;;;;6305314;22;20491;-76
2022/01/21 08:01:35;;;;;;;0.50;0.30;;;1.10;92.40;;;;;;6265097;22;19995;-76
2022/01/21 08:04:01;;;;;;;0.30;0.10;;;1.20;92.40;;;;;;6290703;22;20392;-76
2022/01/21 08:06:27;;;;;;;0.95;0.20;;;1.10;92.40;;;;;;6288056;22;20000;-76
2022/01/21 08:08:54;;;;;;;0.47;0.20;;;1.20;92.50;;;;;;6290295;22;19999;-76
2022/01/21 08:11:20;;;;;;;0.35;0.10;;;1.10;92.50;;;;;;6317383;22;20007;-76
2022/01/21 08:13:46;;;;;;;0.17;0.17;;;1.10;92.50;;;;;;6288727;22;20056;-76
2022/01/21 08:16:12;;;;;;;0.20;0.20;;;1.10;92.50;;;;;;6315446;22;20422;-76
2022/01/21 08:18:38;;;;;;;0.40;0.15;;;1.20;92.50;;;;;;6319305;22;20011;-76
2022/01/21 08:21:05;;;;;;;0.55;0.17;;;1.20;92.50;;;;;;6265717;22;20011;-75
2022/01/21 08:23:30;;;;;;;0.20;0.17;;;1.20;92.50;;;;;;6318546;22;20027;-75
2022/01/21 08:25:56;;;;;;;0.20;0.20;;;1.20;92.50;;;;;;6317773;22;20015;-75
2022/01/21 08:28:23;;;;;;;0.20;0.20;;;1.20;92.60;;;;;;6316170;22;20472;-75
2022/01/21 08:30:48;;;;;;;0.47;0.20;;;1.20;92.60;;;;;;6315854;22;20003;-75
2022/01/21 08:33:14;;;;;;;0.38;0.15;;;1.20;92.60;;;;;;6289554;22;20076;-75
2022/01/21 08:35:40;;;;;;;0.55;0.20;;;1.30;92.70;;;;;;6317109;22;20078;-75
2022/01/21 08:38:06;;;;;;;0.20;0.05;;;1.30;92.60;;;;;;6288841;22;20038;-75
2022/01/21 08:40:33;;;;;;;2.95;0.30;;;1.40;92.70;;;;;;6288070;22;20051;-75
2022/01/21 08:42:59;;;;;;;1.10;0.40;;;1.30;92.60;;;;;;6282388;22;19999;-75
2022/01/21 08:45:26;;;;;;;0.70;0.30;;;1.40;92.60;;;;;;6291738;22;20038;-74
2022/01/21 08:47:52;;;;;;;0.25;0.13;;;1.50;92.60;;;;;;6308447;22;20022;-75
2022/01/21 08:50:20;;;;;;;1.85;0.25;;;1.50;92.50;;;;;;6256168;22;20516;-76
2022/01/21 08:52:48;;;;;;;0.80;0.20;;;1.50;92.50;;;;;;6258590;22;19995;-76
2022/01/21 08:55:17;;;;;;;0.52;0.20;;;1.50;92.50;;;;;;6255686;22;20071;-76
2022/01/21 08:57:46;;;;;;;1.20;0.22;;;1.60;92.50;;;;;;6304943;22;20431;-75
2022/01/21 09:00:17;;;;;;;0.60;0.28;;;1.60;92.50;;;;;;6275759;22;20328;-75
2022/01/21 09:02:43;;;;;;;0.38;0.30;;;1.60;92.50;;;;;;6248930;22;20015;-75
2022/01/21 09:05:10;;;;;;;1.67;0.30;;;1.80;92.50;;;;;;6270817;22;20118;-75
2022/01/21 09:07:37;;;;;;;0.50;0.30;;;1.60;92.40;;;;;;6301960;22;20338;-76
2022/01/21 09:10:04;;;;;;;0.50;0.20;;;1.70;92.50;;;;;;6277663;22;20003;-74
2022/01/21 09:12:30;;;;;;;0.50;0.30;;;1.80;92.40;;;;;;6275821;22;20006;-75
2022/01/21 09:14:56;;;;;;;0.80;0.30;;;1.80;92.50;;;;;;6274556;22;20491;-75
2022/01/21 09:17:23;;;;;;;0.77;0.40;;;1.90;92.50;;;;;;6304919;22;20027;-75
2022/01/21 09:19:49;;;;;;;0.70;0.50;;;1.90;92.50;;;;;;6277812;22;20078;-75
2022/01/21 09:22:16;;;;;;;0.73;0.30;;;2.00;92.50;;;;;;6277654;22;20038;-75
2022/01/21 09:24:43;;;;;;;0.40;0.20;;;2.10;92.40;;;;;;6305455;22;20074;-76
2022/01/21 09:27:10;;;;;;;0.68;0.40;;;2.20;92.30;;;;;;6304686;22;20015;-75
2022/01/21 09:29:36;;;;;;;0.95;0.47;;;2.20;92.20;;;;;;6270925;22;20008;-75
2022/01/21 09:32:05;;;;;;;2.05;0.40;;;2.30;92.20;;;;;;6252813;22;20081;-75
2022/01/21 09:34:31;;;;;;;0.45;0.38;;;2.30;92.20;;;;;;6276054;22;20423;-74
2022/01/21 09:36:59;;;;;;;1.10;0.50;;;2.40;92.20;;;;;;6276070;22;20011;-75
2022/01/21 09:39:27;;;;;;;0.43;0.32;;;2.50;92.20;;;;;;6276716;22;20035;-75
2022/01/21 09:41:59;;;;;;;1.23;0.40;;;2.50;92.20;;;;;;6277314;22;20031;-75
2022/01/21 09:44:25;;;;;;;0.57;0.32;;;2.50;92.20;;;;;;6305543;22;19999;-75
2022/01/21 09:46:53;;;;;;;0.40;0.40;;;2.60;92.20;;;;;;6306199;22;20095;-75
2022/01/21 09:49:26;;;;;;;0.45;0.25;;;2.60;92.10;;;;;;6276355;22;20027;-75
2022/01/21 09:51:56;;;;;;;0.55;0.32;;;2.50;92.10;;;;;;6305950;22;20026;-75
2022/01/21 09:54:25;;;;;;;0.40;0.30;;;2.60;92.20;;;;;;6252239;22;20094;-75
2022/01/21 09:56:53;;;;;;;0.73;0.50;;;2.60;92.20;;;;;;6278719;22;20019;-75
2022/01/21 09:59:22;;;;;;;2.10;0.50;;;2.60;92.20;;;;;;6245811;22;20039;-75
2022/01/21 10:01:52;;;;;;;0.82;0.57;;;2.70;92.20;;;;;;6280018;22;19999;-75
2022/01/21 10:04:19;;;;;;;1.08;0.55;;;2.70;92.20;;;;;;6306382;22;20060;-75
2022/01/21 10:06:46;;;;;;;0.80;0.50;;;2.80;92.20;;;;;;6278664;22;20004;-76
2022/01/21 10:09:14;;;;;;;1.52;0.50;;;2.80;92.20;;;;;;6287319;22;20007;-75
2022/01/21 10:11:40;;;;;;;2.50;0.52;;;2.80;92.20;;;;;;6310375;22;20078;-77
2022/01/21 10:14:05;;;;;;;1.27;0.77;;;2.80;92.10;;;;;;6294227;22;20000;-76
2022/01/21 10:16:31;;;;;;;1.35;0.50;;;2.90;92.10;;;;;;6316689;22;19991;-75
2022/01/21 10:19:04;;;;;;;0.88;0.50;;;3.00;92.20;;;;;;6307802;22;20003;-75
2022/01/21 10:21:33;;;;;;;2.30;0.73;;;3.10;92.10;;;;;;6251010;22;20026;-75
2022/01/21 10:24:09;;;;;;;1.02;0.63;;;3.10;92.10;;;;;;6322524;22;20000;-74
2022/01/21 10:26:47;;;;;;;2.03;0.70;;;3.20;92.00;;;;;;6291804;22;20003;-76
2022/01/21 10:29:13;;;;;;;2.00;0.70;;;3.20;92.00;;;;;;6300006;22;20014;-76
2022/01/21 10:31:51;;;;;;;2.53;0.80;;;3.30;92.00;;;;;;6299797;22;20012;-75
2022/01/21 10:34:28;;;;;;;0.80;0.57;;;3.40;92.00;;;;;;6293329;22;20015;-77
2022/01/21 10:37:03;;;;;;;1.45;0.52;;;3.60;92.00;;;;;;6291330;22;20059;-74
2022/01/21 10:39:31;;;;;;;0.98;0.57;;;3.70;91.90;;;;;;6327415;22;20016;-78
2022/01/21 10:41:59;;;;;;;1.20;0.45;;;3.80;91.80;;;;;;6295794;22;20010;-78
2022/01/21 10:44:28;;;;;;;1.40;0.65;;;3.90;91.80;;;;;;6300063;22;20019;-79
2022/01/21 10:47:11;;;;;;;1.00;0.60;;;4.00;91.70;;;;;;6281041;22;19991;-77
2022/01/21 10:49:40;;;;;;;1.80;0.70;;;4.10;91.70;;;;;;6293972;22;20007;-76
2022/01/21 10:52:09;;;;;;;1.40;0.52;;;4.10;91.60;;;;;;6288306;22;20010;-75
2022/01/21 10:54:43;;;;;;;0.93;0.57;;;4.40;91.60;;;;;;6330753;22;20003;-76
2022/01/21 10:57:15;;;;;;;0.77;0.50;;;4.30;91.60;;;;;;6326442;22;19999;-78
2022/01/21 11:00:05;;;;;;;1.77;0.68;;;4.40;91.50;;;;;;6294592;22;20045;-78
2022/01/21 11:02:41;;;;;;;1.20;0.63;;;4.50;91.50;;;;;;6327717;22;20011;-79
2022/01/21 11:05:14;;;;;;;1.80;0.70;;;4.60;91.50;;;;;;6290927;22;20006;-80
2022/01/21 11:07:54;;;;;;;1.17;0.57;;;4.60;91.40;;;;;;6291676;22;20004;-78
2022/01/21 11:10:42;;;;;;;1.67;0.70;;;4.60;91.80;;;;;;6288191;22;20003;-79
2022/01/21 11:13:29;;;;;;;1.60;0.85;;;4.70;91.50;;;;;;6253464;22;20332;-78
2022/01/21 11:15:58;;;;;;;2.15;0.60;;;4.70;91.50;;;;;;6283227;22;20015;-78
2022/01/21 11:18:26;;;;;;;2.33;0.85;;;4.80;91.50;;;;;;6280923;22;19995;-77
2022/01/21 11:21:04;;;;;;;1.02;0.50;;;4.80;91.50;;;;;;6253481;22;20026;-77
2022/01/21 11:23:32;;;;;;;1.50;0.65;;;4.90;91.50;;;;;;6246832;22;20328;-78
2022/01/21 11:26:01;;;;;;;1.13;0.52;;;5.00;91.50;;;;;;6276703;22;20439;-78
2022/01/21 11:28:36;;;;;;;1.33;0.52;;;5.00;91.50;;;;;;6250614;22;20030;-77
2022/01/21 11:31:03;;;;;;;1.20;0.52;;;5.10;91.50;;;;;;6305332;22;20000;-78
2022/01/21 11:33:29;;;;;;;3.90;0.60;;;5.10;91.50;;;;;;6305549;22;20002;-78
2022/01/21 11:35:55;;;;;;;2.10;0.60;;;5.00;91.40;;;;;;6271949;22;20106;-78
2022/01/21 11:38:24;;;;;;;1.70;0.60;;;5.10;91.50;;;;;;6275451;22;20038;-78
2022/01/21 11:40:51;;;;;;;1.35;0.73;;;5.20;91.50;;;;;;6276087;22;20095;-78
2022/01/21 11:43:18;;;;;;;2.13;0.70;;;5.40;91.50;;;;;;6275777;22;20078;-78
2022/01/21 11:48:54;;;;;;;2.15;0.70;;;5.30;91.50;;;;;;6275646;22;20012;-78
2022/01/21 11:51:26;;;;;;;1.20;0.73;;;5.40;91.50;;;;;;6277326;22;20008;-78
2022/01/21 11:53:57;;;;;;;0.65;0.40;;;5.40;91.50;;;;;;6278335;22;20078;-78
2022/01/21 11:56:43;;;;;;;1.23;0.50;;;5.30;91.50;;;;;;6252599;22;20490;-78
2022/01/21 11:59:16;;;;;;;1.02;0.50;;;5.40;91.60;;;;;;6277669;22;20052;-78
2022/01/21 12:01:48;;;;;;;1.20;0.50;;;5.40;91.60;;;;;;6276635;22;20501;-78
2022/01/21 12:04:38;;;;;;;0.73;0.30;;;5.40;91.60;;;;;;6279182;22;20003;-77
2022/01/21 12:07:04;;;;;;;2.17;0.50;;;5.40;91.70;;;;;;6306347;22;20011;-78
2022/01/21 12:09:55;;;;;;;1.73;0.43;;;5.40;91.70;;;;;;6277915;22;20010;-78
2022/01/21 12:12:22;;;;;;;0.25;0.25;;;5.50;91.80;;;;;;6276618;22;20033;-78
2022/01/21 12:14:54;;;;;;;0.40;0.30;;;5.50;91.70;;;;;;6276857;22;20000;-78
2022/01/21 12:17:43;;;;;;;2.30;0.40;;;5.60;91.70;;;;;;6277160;22;20332;-76
2022/01/21 12:20:09;;;;;;;2.55;0.60;;;5.60;91.70;;;;;;6278768;22;20454;-74
2022/01/21 12:22:36;;;;;;;1.10;0.50;;;5.70;91.70;;;;;;6306784;22;20423;-74
2022/01/21 12:25:06;;;;;;;1.35;0.50;;;5.80;91.70;;;;;;6307769;22;19999;-76
2022/01/21 12:27:33;;;;;;;2.72;0.55;;;5.80;91.60;;;;;;6331616;22;20081;-75
2022/01/21 12:30:26;;;;;;;1.85;0.40;;;5.90;91.60;;;;;;6256632;22;20286;-77
2022/01/21 12:32:55;;;;;;;2.33;0.65;;;6.00;91.60;;;;;;6303395;22;20008;-77
2022/01/21 12:35:21;;;;;;;0.73;0.45;;;6.10;91.50;;;;;;6275185;22;20012;-78
2022/01/21 12:41:30;;;;;;;0.77;0.30;;;6.10;91.50;;;;;;6277149;22;20006;-79
2022/01/21 12:44:01;;;;;;;0.82;0.40;;;6.20;91.50;;;;;;6279874;22;20007;-75
2022/01/21 12:46:30;;;;;;;3.30;0.70;;;6.30;91.50;;;;;;6327926;22;20010;-76
2022/01/21 12:48:57;;;;;;;1.20;0.43;;;6.30;91.50;;;;;;6284429;22;20016;-78
2022/01/21 12:51:45;;;;;;;1.30;0.55;;;6.30;91.50;;;;;;6299023;22;20050;-79
2022/01/21 12:56:54;;;;;;;1.23;0.57;;;6.30;91.60;;;;;;6292291;22;20010;-76
2022/01/21 12:59:22;;;;;;;1.08;0.40;;;6.30;91.60;;;;;;6274088;22;19999;-75
2022/01/21 13:01:50;;;;;;;1.30;0.40;;;6.40;91.60;;;;;;6305526;22;20007;-75
2022/01/21 13:04:35;;;;;;;1.27;0.55;;;6.40;91.60;;;;;;6280142;22;20059;-80
2022/01/21 13:07:24;;;;;;;3.03;0.80;;;6.50;91.70;;;;;;6286521;22;19998;-78
2022/01/21 13:10:12;;;;;;;1.38;0.45;;;6.30;91.60;;;;;;6270590;22;20007;-77
2022/01/21 13:12:58;;;;;;;2.40;0.60;;;6.40;91.70;;;;;;6308301;22;20052;-76
2022/01/21 13:15:36;;;;;;;0.40;0.35;;;6.40;91.70;;;;;;6285737;22;20128;-76
2022/01/21 13:18:01;;;;;;;1.17;0.50;;;6.40;91.80;;;;;;6277453;22;20003;-77
2022/01/21 13:20:30;;;;;;;1.42;0.50;;;6.40;91.80;;;;;;6269960;22;20054;-76
2022/01/21 13:22:55;;;;;;;0.65;0.30;;;6.40;91.80;;;;;;6307358;22;20019;-78
2022/01/21 13:25:22;;;;;;;3.03;0.50;;;6.40;91.80;;;;;;6253901;22;20011;-80
2022/01/21 13:27:52;;;;;;;2.22;0.50;;;6.30;91.80;;;;;;6251695;22;20008;-80
2022/01/21 13:30:20;;;;;;;1.27;0.50;;;6.40;91.90;;;;;;6278767;22;20057;-81
2022/01/21 13:32:46;;;;;;;1.85;0.50;;;6.30;91.80;;;;;;6253051;22;20141;-82
2022/01/21 13:35:16;;;;;;;3.78;0.80;;;6.40;91.90;;;;;;6273203;22;20007;-81
2022/01/21 13:38:01;;;;;;;1.48;0.70;;;6.40;91.90;;;;;;6273113;22;20439;-81
2022/01/21 13:40:30;;;;;;;0.80;0.40;;;6.40;91.90;;;;;;6253869;22;20017;-81
2022/01/21 13:43:13;;;;;;;1.30;0.50;;;6.40;91.90;;;;;;6306603;22;19999;-81
2022/01/21 13:45:41;;;;;;;0.80;0.43;;;6.50;92.00;;;;;;6305406;22;19995;-81
2022/01/21 13:48:09;;;;;;;2.47;0.43;;;6.50;91.90;;;;;;6251476;22;20043;-82
2022/01/21 13:50:36;;;;;;;1.63;0.57;;;6.50;91.90;;;;;;6279115;22;20055;-83
2022/01/21 13:53:07;;;;;;;1.02;0.35;;;6.60;91.90;;;;;;6272379;22;20491;-81
2022/01/21 13:55:42;;;;;;;1.67;0.35;;;6.70;91.90;;;;;;6278830;22;19999;-81
2022/01/21 13:58:11;;;;;;;0.95;0.30;;;6.70;91.80;;;;;;6278295;22;20447;-80
2022/01/21 14:00:41;;;;;;;1.35;0.32;;;6.70;92.10;;;;;;6306099;22;20082;-81